createdAt,value
2024-02-12T00:00:45.154Z,7.75
2024-02-12T00:03:47.565Z,7.97
2024-02-12T00:06:49.720Z,10.50
2024-02-12T00:09:52.677Z,11.00
2024-02-12T00:12:54.813Z,11.55
2024-02-12T00:15:57.132Z,10.38
2024-02-12T00:18:59.320Z,8.23
2024-02-12T00:22:02.523Z,12.85
2024-02-12T00:25:04.970Z,16.83
2024-02-12T00:28:07.067Z,23.08
2024-02-12T00:31:09.176Z,30.67
2024-02-12T00:34:11.422Z,36.55
2024-02-12T00:37:14.383Z,50.25
2024-02-12T00:40:16.519Z,58.97
2024-02-12T00:43:18.932Z,109.85
2024-02-12T00:46:21.054Z,41.92
2024-02-12T00:49:23.315Z,67.30
2024-02-12T00:52:25.505Z,61.22
2024-02-12T00:55:27.596Z,53.40
2024-02-12T00:58:29.793Z,61.72
2024-02-12T01:01:31.948Z,119.20
2024-02-12T01:04:34.104Z,41.67
2024-02-12T01:07:40.316Z,31.50
2024-02-12T01:10:42.470Z,35.50
2024-02-12T01:13:44.639Z,36.35
2024-02-12T01:16:47.305Z,37.22
2024-02-12T01:19:49.810Z,40.72
2024-02-12T01:22:52.352Z,38.60
2024-02-12T01:25:54.670Z,71.85
2024-02-12T01:28:57.237Z,56.40
2024-02-12T01:31:59.470Z,46.15
2024-02-12T01:35:01.907Z,44.30
2024-02-12T01:38:04.229Z,116.28
2024-02-12T01:41:06.574Z,54.00
2024-02-12T01:44:08.938Z,63.25
2024-02-12T01:47:15.053Z,41.30
2024-02-12T01:50:23.482Z,40.17
2024-02-12T01:53:26.003Z,41.28
2024-02-12T01:56:30.578Z,43.35
2024-02-12T01:59:33.034Z,39.70
2024-02-12T02:02:35.279Z,41.85
2024-02-12T02:05:37.802Z,43.22
2024-02-12T02:08:41.295Z,43.05
2024-02-12T02:11:43.561Z,45.80
2024-02-12T02:14:47.263Z,48.17
2024-02-12T02:17:49.642Z,122.88
2024-02-12T02:20:55.151Z,89.25
2024-02-12T02:24:01.156Z,105.43
2024-02-12T02:27:03.415Z,149.57
2024-02-12T02:30:06.424Z,89.13
2024-02-12T02:33:08.862Z,58.95
2024-02-12T02:36:11.093Z,87.82
2024-02-12T02:39:13.436Z,62.13
2024-02-12T02:42:15.600Z,44.97
2024-02-12T02:45:18.184Z,41.78
2024-02-12T02:48:20.560Z,31.45
2024-02-12T02:51:26.835Z,32.33
2024-02-12T02:54:29.192Z,37.35
2024-02-12T02:57:31.443Z,37.22
2024-02-12T03:00:33.637Z,41.70
2024-02-12T03:03:36.020Z,47.88
2024-02-12T03:06:38.328Z,53.00
2024-02-12T03:09:40.665Z,52.80
2024-02-12T03:12:44.668Z,55.85
2024-02-12T03:15:47.402Z,54.95
2024-02-12T03:21:55.114Z,63.92
2024-02-12T03:24:57.310Z,62.08
2024-02-12T03:27:59.530Z,63.53
2024-02-12T03:31:02.190Z,62.33
2024-02-12T03:34:04.820Z,63.63
2024-02-12T03:37:09.603Z,63.40
2024-02-12T03:40:12.576Z,93.43
2024-02-12T03:43:14.876Z,131.77
2024-02-12T03:46:22.980Z,194.10
2024-02-12T03:49:25.533Z,148.35
2024-02-12T03:52:27.953Z,102.28
2024-02-12T03:55:30.526Z,232.90
2024-02-12T03:58:32.849Z,73.80
2024-02-12T04:01:34.971Z,69.50
2024-02-12T04:04:37.202Z,57.08
2024-02-12T04:07:41.020Z,61.15
2024-02-12T04:10:44.070Z,62.30
2024-02-12T04:13:46.225Z,58.28
2024-02-12T04:16:49.541Z,56.45
2024-02-12T04:19:51.713Z,60.90
2024-02-12T04:22:54.226Z,62.75
2024-02-12T04:25:56.525Z,63.80
2024-02-12T04:29:01.788Z,65.00
2024-02-12T04:32:04.171Z,66.63
2024-02-12T04:35:07.319Z,55.35
2024-02-12T04:38:09.546Z,56.53
2024-02-12T04:41:12.572Z,60.88
2024-02-12T04:47:17.009Z,64.10
2024-02-12T04:50:19.664Z,63.40
2024-02-12T04:53:21.784Z,60.75
2024-02-12T04:56:23.977Z,68.45
2024-02-12T04:59:26.340Z,81.45
2024-02-12T05:02:28.592Z,152.50
2024-02-12T05:05:30.793Z,72.97
2024-02-12T05:08:33.220Z,64.55
2024-02-12T05:11:35.525Z,69.95
2024-02-12T05:14:37.853Z,63.17
2024-02-12T05:17:40.300Z,64.93
2024-02-12T05:20:42.765Z,62.28
2024-02-12T05:23:45.000Z,60.13
2024-02-12T05:26:48.353Z,61.15
2024-02-12T05:29:50.479Z,59.03
2024-02-12T05:32:53.607Z,57.30
2024-02-12T05:35:55.726Z,58.65
2024-02-12T05:38:57.889Z,53.60
2024-02-12T05:41:59.967Z,45.33
2024-02-12T05:45:02.205Z,49.13
2024-02-12T05:48:04.723Z,45.83
2024-02-12T05:51:06.907Z,46.67
2024-02-12T05:54:09.500Z,44.35
2024-02-12T05:57:12.253Z,48.78
2024-02-12T06:00:14.798Z,41.90
2024-02-12T06:06:19.538Z,53.08
2024-02-12T06:09:21.839Z,54.70
2024-02-12T06:12:23.899Z,56.60
2024-02-12T06:15:26.162Z,81.82
2024-02-12T06:18:29.168Z,52.38
2024-02-12T06:21:31.407Z,45.17
2024-02-12T06:24:33.973Z,41.45
2024-02-12T06:27:36.304Z,43.30
2024-02-12T06:30:38.535Z,30.23
2024-02-12T06:33:40.769Z,26.63
2024-02-12T06:36:42.891Z,31.50
2024-02-12T06:39:45.015Z,21.65
2024-02-12T06:42:47.752Z,17.55
2024-02-12T06:48:52.166Z,45.92
2024-02-12T06:51:54.426Z,54.60
2024-02-12T06:54:56.540Z,52.40
2024-02-12T06:57:58.842Z,50.00
2024-02-12T07:01:01.131Z,53.10
2024-02-12T07:04:04.175Z,53.33
2024-02-12T07:07:14.718Z,81.30
2024-02-12T07:10:16.941Z,58.78
2024-02-12T07:13:19.194Z,60.25
2024-02-12T07:16:21.504Z,75.45
2024-02-12T07:19:23.978Z,64.60
2024-02-12T07:22:25.982Z,54.67
2024-02-12T07:25:28.046Z,47.55
2024-02-12T07:28:30.032Z,43.35
2024-02-12T07:31:32.083Z,38.42
2024-02-12T07:34:34.341Z,37.80
2024-02-12T07:37:38.333Z,37.72
2024-02-12T07:40:40.708Z,34.00
2024-02-12T07:43:42.632Z,35.70
2024-02-12T07:46:44.594Z,37.60
2024-02-12T07:49:46.566Z,38.40
2024-02-12T07:52:48.743Z,45.50
2024-02-12T07:55:50.689Z,49.92
2024-02-12T07:58:52.737Z,48.40
2024-02-12T08:01:54.950Z,44.72
2024-02-12T08:04:57.149Z,45.95
2024-02-12T08:08:03.461Z,50.90
2024-02-12T08:11:07.172Z,55.33
2024-02-12T08:14:09.271Z,53.78
2024-02-12T08:17:11.250Z,53.17
2024-02-12T08:20:13.425Z,53.53
2024-02-12T08:23:15.446Z,52.63
2024-02-12T08:26:17.552Z,49.30
2024-02-12T08:29:19.647Z,48.05
2024-02-12T08:32:21.733Z,45.03
2024-02-12T08:35:24.005Z,45.53
2024-02-12T08:38:26.136Z,42.03
2024-02-12T08:41:28.317Z,45.25
2024-02-12T08:44:30.525Z,47.05
2024-02-12T08:47:32.664Z,43.33
2024-02-12T08:53:40.916Z,46.35
2024-02-12T08:56:43.131Z,49.67
2024-02-12T08:59:45.733Z,49.08
2024-02-12T09:02:48.110Z,49.25
2024-02-12T09:05:50.281Z,40.72
2024-02-12T09:08:52.339Z,42.42
2024-02-12T09:11:54.583Z,38.85
2024-02-12T09:14:59.184Z,37.40
2024-02-12T09:18:01.404Z,42.15
2024-02-12T09:21:03.818Z,47.65
2024-02-12T09:24:06.245Z,49.38
2024-02-12T09:27:08.785Z,45.95
2024-02-12T09:30:11.532Z,46.25
2024-02-12T09:33:17.313Z,43.75
2024-02-12T09:36:19.472Z,48.67
2024-02-12T09:39:21.729Z,53.67
2024-02-12T09:42:27.172Z,58.08
2024-02-12T09:45:29.933Z,54.65
2024-02-12T09:48:32.623Z,49.03
2024-02-12T09:51:35.090Z,42.00
2024-02-12T09:54:39.935Z,44.20
2024-02-12T09:57:42.626Z,51.63
2024-02-12T10:00:46.185Z,41.03
2024-02-12T10:03:48.370Z,49.53
2024-02-12T10:06:57.302Z,51.95
2024-02-12T10:09:59.277Z,52.00
2024-02-12T10:13:01.362Z,55.88
2024-02-12T10:16:05.903Z,55.13
2024-02-12T10:19:07.921Z,54.95
2024-02-12T10:22:09.927Z,45.88
2024-02-12T10:25:11.916Z,55.03
2024-02-12T10:28:14.844Z,46.55
2024-02-12T10:31:16.981Z,55.13
2024-02-12T10:34:19.111Z,53.58
2024-02-12T10:37:25.681Z,56.63
2024-02-12T10:40:33.823Z,54.58
2024-02-12T10:43:38.258Z,59.05
2024-02-12T10:46:41.027Z,57.05
2024-02-12T10:49:43.081Z,54.33
2024-02-12T10:52:45.083Z,67.53
2024-02-12T10:55:51.034Z,66.28
2024-02-12T10:58:53.252Z,64.82
2024-02-12T11:01:55.248Z,65.43
2024-02-12T11:04:57.306Z,66.43
2024-02-12T11:08:08.819Z,59.78
2024-02-12T11:11:19.283Z,64.13
2024-02-12T11:14:34.059Z,64.30
2024-02-12T11:17:36.250Z,53.67
2024-02-12T11:20:47.933Z,58.33
2024-02-12T11:23:50.219Z,57.20
2024-02-12T11:26:54.132Z,59.80
2024-02-12T11:29:57.425Z,54.92
2024-02-12T11:32:59.619Z,56.50
2024-02-12T11:36:08.879Z,61.53
2024-02-12T11:39:11.401Z,62.00
2024-02-12T11:42:13.509Z,57.50
2024-02-12T11:45:17.193Z,48.40
2024-02-12T11:48:19.901Z,53.70
2024-02-12T12:03:18.420Z,45.00
2024-02-12T12:06:23.893Z,49.33
2024-02-12T12:09:26.053Z,55.17
2024-02-12T12:12:28.173Z,48.22
2024-02-12T12:15:30.646Z,50.63
2024-02-12T12:18:33.081Z,9.82
2024-02-12T12:21:36.021Z,46.10
2024-02-12T12:24:38.526Z,48.13
2024-02-12T12:27:41.134Z,47.88
2024-02-12T12:30:43.390Z,56.50
2024-02-12T12:33:45.490Z,58.58
2024-02-12T12:36:47.665Z,58.55
2024-02-12T12:39:49.927Z,57.50
2024-02-12T12:42:51.986Z,58.97
2024-02-12T12:45:56.647Z,60.05
2024-02-12T12:48:58.682Z,61.40
2024-02-12T12:52:00.797Z,64.90
2024-02-12T12:55:03.804Z,65.35
2024-02-12T12:58:05.784Z,69.03
2024-02-12T13:01:07.899Z,72.75
2024-02-12T13:04:09.947Z,72.30
2024-02-12T13:07:14.986Z,67.90
2024-02-12T13:10:17.430Z,65.82
2024-02-12T13:13:19.443Z,66.80
2024-02-12T13:16:21.472Z,60.25
2024-02-12T13:19:23.624Z,64.05
2024-02-12T13:22:25.615Z,62.65
2024-02-12T13:25:32.747Z,60.10
2024-02-12T13:28:34.800Z,57.38
2024-02-12T13:31:37.109Z,57.10
2024-02-12T13:37:41.691Z,65.95
2024-02-12T13:40:43.989Z,56.33
2024-02-12T13:43:46.107Z,57.10
2024-02-12T13:46:48.166Z,61.53
2024-02-12T13:49:50.210Z,60.05
2024-02-12T13:52:52.414Z,58.80
2024-02-12T13:55:54.384Z,56.30
2024-02-12T13:58:56.466Z,62.85
2024-02-12T14:02:03.624Z,52.75
2024-02-12T14:05:08.604Z,56.58
2024-02-12T14:08:10.778Z,62.90
2024-02-12T14:11:12.872Z,56.90
2024-02-12T14:14:14.922Z,54.75
2024-02-12T14:17:16.971Z,57.72
2024-02-12T14:20:20.931Z,53.42
2024-02-12T14:23:23.173Z,56.55
2024-02-12T14:26:25.317Z,54.03
2024-02-12T14:29:27.368Z,52.65
2024-02-12T14:32:40.056Z,51.10
2024-02-12T14:35:44.902Z,51.45
2024-02-12T14:38:47.748Z,53.47
2024-02-12T14:41:49.843Z,51.95
2024-02-12T14:44:53.789Z,52.45
2024-02-12T14:47:57.024Z,51.13
2024-02-12T14:50:59.376Z,51.45
2024-02-12T14:54:01.495Z,53.83
2024-02-12T14:57:04.556Z,49.15
2024-02-12T15:00:10.422Z,48.70
2024-02-12T15:03:12.520Z,50.03
2024-02-12T15:06:18.059Z,49.78
2024-02-12T15:09:20.166Z,51.88
2024-02-12T15:12:22.123Z,55.53
2024-02-12T15:15:24.289Z,55.05
2024-02-12T15:18:26.287Z,51.92
2024-02-12T15:21:28.419Z,52.33
2024-02-12T15:24:30.355Z,52.25
2024-02-12T15:27:32.463Z,54.35
2024-02-12T15:30:39.014Z,49.72
2024-02-12T15:33:42.152Z,52.15
2024-02-12T15:36:47.245Z,49.42
2024-02-12T15:40:00.805Z,48.33
2024-02-12T15:43:11.717Z,46.88
2024-02-12T15:46:14.446Z,47.70
2024-02-12T15:49:16.476Z,47.10
2024-02-12T15:52:18.811Z,50.67
2024-02-12T15:55:21.351Z,48.22
2024-02-12T15:58:23.396Z,51.28
2024-02-12T16:01:25.836Z,50.63
2024-02-12T16:04:27.865Z,47.40
2024-02-12T16:07:29.939Z,48.05
2024-02-12T16:10:38.208Z,44.78
2024-02-12T16:13:41.525Z,46.95
2024-02-12T16:16:45.651Z,47.13
2024-02-12T16:19:47.844Z,47.20
2024-02-12T16:22:55.526Z,45.42
2024-02-12T16:25:58.005Z,44.35
2024-02-12T16:29:00.184Z,47.53
2024-02-12T16:32:02.284Z,42.83
2024-02-12T16:35:04.989Z,44.70
2024-02-12T16:38:07.160Z,52.15
2024-02-12T16:41:09.795Z,54.28
2024-02-12T16:44:12.440Z,52.70
2024-02-12T16:47:14.643Z,53.15
2024-02-12T16:50:17.168Z,56.33
2024-02-12T16:53:19.742Z,55.75
2024-02-12T16:56:21.865Z,54.80
2024-02-12T16:59:24.154Z,56.13
2024-02-12T17:02:26.733Z,55.67
2024-02-12T17:05:31.388Z,56.65
2024-02-12T17:08:33.776Z,57.90
2024-02-12T17:11:35.903Z,60.42
2024-02-12T17:14:38.522Z,57.33
2024-02-12T17:17:42.399Z,58.00
2024-02-12T17:20:45.013Z,58.58
2024-02-12T17:23:47.223Z,60.35
2024-02-12T17:26:49.550Z,59.50
2024-02-12T17:29:51.835Z,60.40
2024-02-12T17:32:56.216Z,57.17
2024-02-12T17:35:58.846Z,56.90
2024-02-12T17:39:00.883Z,59.50
2024-02-12T17:42:10.688Z,61.55
2024-02-12T17:45:12.994Z,58.95
2024-02-12T17:48:15.139Z,58.15
2024-02-12T17:51:17.503Z,58.58
2024-02-12T17:54:19.805Z,61.38
2024-02-12T17:57:21.827Z,60.42
2024-02-12T18:00:24.217Z,60.17
2024-02-12T18:03:26.318Z,57.47
2024-02-12T18:06:28.559Z,61.97
2024-02-12T18:09:31.442Z,59.30
2024-02-12T18:12:33.700Z,60.03
2024-02-12T18:15:42.102Z,60.22
2024-02-12T18:18:46.908Z,62.80
2024-02-12T18:21:48.984Z,61.67
2024-02-12T18:24:51.202Z,63.05
2024-02-12T18:27:53.270Z,60.10
2024-02-12T18:30:56.046Z,59.75
2024-02-12T18:33:58.261Z,56.08
2024-02-12T18:37:00.435Z,57.70
2024-02-12T18:40:02.448Z,61.08
2024-02-12T18:43:04.836Z,58.95
2024-02-12T18:46:07.804Z,60.28
2024-02-12T18:49:09.958Z,56.00
2024-02-12T18:52:12.131Z,51.22
2024-02-12T18:55:14.525Z,6.03
2024-02-12T18:58:18.015Z,4.22
2024-02-12T19:01:20.475Z,5.55
2024-02-12T19:04:22.626Z,6.88
2024-02-12T19:07:24.666Z,7.57
2024-02-12T19:10:26.940Z,4.75
2024-02-12T19:13:28.963Z,5.97
2024-02-12T19:16:31.961Z,4.93
2024-02-12T19:19:35.272Z,7.97
2024-02-12T19:22:37.355Z,9.10
2024-02-12T19:25:39.536Z,8.63
2024-02-12T19:28:44.430Z,8.10
2024-02-12T19:31:46.531Z,5.43
2024-02-12T19:34:48.546Z,7.10
2024-02-12T19:37:50.633Z,9.43
2024-02-12T19:40:53.223Z,12.20
2024-02-12T19:43:55.278Z,9.07
2024-02-12T19:46:57.375Z,8.95
2024-02-12T19:49:59.783Z,11.38
2024-02-12T19:53:01.904Z,15.18
2024-02-12T19:56:04.052Z,12.95
2024-02-12T19:59:06.158Z,14.90
2024-02-12T20:02:10.001Z,9.88
2024-02-12T20:05:13.307Z,11.30
2024-02-12T20:08:16.089Z,15.20
2024-02-12T20:11:20.700Z,16.35
2024-02-12T20:14:23.578Z,10.80
2024-02-12T20:20:28.442Z,19.63
2024-02-12T20:23:30.551Z,16.90
2024-02-12T20:26:33.000Z,12.95
2024-02-12T20:29:35.128Z,11.52
2024-02-12T20:32:38.973Z,16.00
2024-02-12T20:35:41.103Z,18.17
2024-02-12T20:38:43.217Z,24.25
2024-02-12T20:41:45.335Z,30.63
2024-02-12T20:44:47.885Z,58.80
2024-02-12T20:47:50.583Z,60.15
2024-02-12T20:50:52.972Z,62.13
2024-02-12T20:53:55.260Z,62.53
2024-02-12T20:56:57.571Z,63.50
2024-02-12T20:59:59.598Z,63.30
2024-02-12T21:03:01.813Z,63.78
2024-02-12T21:06:04.049Z,62.03
2024-02-12T21:09:06.297Z,61.08
2024-02-12T21:16:00.253Z,62.30
2024-02-12T21:19:02.273Z,63.30
2024-02-12T21:22:04.439Z,63.03
2024-02-12T21:25:06.809Z,62.08
2024-02-12T21:28:08.744Z,64.30
2024-02-12T21:31:10.774Z,62.78
2024-02-12T21:34:12.937Z,64.05
2024-02-12T21:37:15.013Z,62.88
2024-02-12T21:40:17.120Z,60.20
2024-02-12T21:43:19.284Z,61.53
2024-02-12T21:46:21.211Z,61.15
2024-02-12T21:49:23.354Z,60.95
2024-02-12T21:52:25.399Z,60.63
2024-02-12T21:55:27.412Z,65.20
2024-02-12T21:58:29.390Z,62.20
2024-02-12T22:01:31.410Z,61.58
2024-02-12T22:04:33.515Z,62.17
2024-02-12T22:07:35.563Z,63.80
2024-02-12T22:10:37.548Z,61.28
2024-02-12T22:13:39.670Z,60.45
2024-02-12T22:16:41.934Z,63.15
2024-02-12T22:19:44.109Z,61.92
2024-02-12T22:22:48.518Z,62.25
2024-02-12T22:25:50.557Z,60.33
2024-02-12T22:28:52.534Z,63.35
2024-02-12T22:31:54.707Z,63.25
2024-02-12T22:34:58.898Z,64.38
2024-02-12T22:38:01.451Z,63.80
2024-02-12T22:41:03.570Z,61.85
2024-02-12T22:44:05.986Z,64.55
2024-02-12T22:47:08.108Z,64.88
2024-02-12T22:50:10.656Z,64.80
2024-02-12T22:53:12.717Z,63.08
2024-02-12T22:56:14.743Z,41.60
2024-02-12T22:59:19.696Z,63.80
2024-02-12T23:02:21.930Z,66.18
2024-02-12T23:05:24.043Z,62.90
2024-02-12T23:08:26.595Z,62.10
2024-02-12T23:11:29.278Z,62.30
2024-02-12T23:14:31.676Z,61.17
2024-02-12T23:17:33.942Z,62.47
2024-02-12T23:20:36.819Z,63.63
2024-02-12T23:26:41.295Z,64.13
2024-02-12T23:29:43.459Z,57.63
2024-02-12T23:32:45.814Z,58.67
2024-02-12T23:35:48.254Z,58.60
2024-02-12T23:38:50.770Z,60.45
2024-02-12T23:41:52.915Z,57.92
2024-02-12T23:44:55.081Z,59.63
2024-02-12T23:47:57.377Z,58.80
2024-02-12T23:50:59.638Z,60.63
2024-02-12T23:54:01.791Z,61.17
2024-02-12T23:57:04.131Z,60.78
